sensor_id;sensor_type;location;lat;lon;timestamp;P1;durP1;ratioP1;P2;durP2;ratioP2
26303;SDS011;57113;48.680;8.890;2023-06-10T00:02:15;6.55;;;4.20;;
26303;SDS011;57113;48.680;8.890;2023-06-10T00:04:42;7.47;;;3.80;;
26303;SDS011;57113;48.680;8.890;2023-06-10T00:07:07;4.70;;;4.20;;
26303;SDS011;57113;48.680;8.890;2023-06-10T00:09:33;6.05;;;3.90;;
26303;SDS011;57113;48.680;8.890;2023-06-10T00:12:06;5.22;;;3.75;;
26303;SDS011;57113;48.680;8.890;2023-06-10T00:14:33;9.30;;;4.30;;
26303;SDS011;57113;48.680;8.890;2023-06-10T00:17:00;6.50;;;4.63;;
26303;SDS011;57113;48.680;8.890;2023-06-10T00:19:26;6.22;;;4.18;;
26303;SDS011;57113;48.680;8.890;2023-06-10T00:21:55;6.47;;;4.18;;
26303;SDS011;57113;48.680;8.890;2023-06-10T00:24:21;6.45;;;3.80;;
26303;SDS011;57113;48.680;8.890;2023-06-10T00:26:47;6.50;;;4.30;;
26303;SDS011;57113;48.680;8.890;2023-06-10T00:29:13;4.68;;;4.05;;
26303;SDS011;57113;48.680;8.890;2023-06-10T00:31:39;6.88;;;4.10;;
26303;SDS011;57113;48.680;8.890;2023-06-10T00:34:05;7.07;;;4.22;;
26303;SDS011;57113;48.680;8.890;2023-06-10T00:36:32;6.13;;;4.00;;
26303;SDS011;57113;48.680;8.890;2023-06-10T00:38:57;5.47;;;3.88;;
26303;SDS011;57113;48.680;8.890;2023-06-10T00:41:23;7.78;;;4.60;;
26303;SDS011;57113;48.680;8.890;2023-06-10T00:43:51;5.53;;;4.35;;
26303;SDS011;57113;48.680;8.890;2023-06-10T00:46:16;9.95;;;4.35;;
26303;SDS011;57113;48.680;8.890;2023-06-10T00:48:44;5.57;;;3.95;;
26303;SDS011;57113;48.680;8.890;2023-06-10T00:51:11;5.93;;;4.13;;
26303;SDS011;57113;48.680;8.890;2023-06-10T00:53:37;4.50;;;4.10;;
26303;SDS011;57113;48.680;8.890;2023-06-10T00:56:05;5.32;;;3.97;;
26303;SDS011;57113;48.680;8.890;2023-06-10T00:58:31;4.57;;;3.97;;
26303;SDS011;57113;48.680;8.890;2023-06-10T01:00:57;4.97;;;4.07;;
26303;SDS011;57113;48.680;8.890;2023-06-10T01:03:23;4.18;;;3.78;;
26303;SDS011;57113;48.680;8.890;2023-06-10T01:05:50;4.55;;;4.00;;
26303;SDS011;57113;48.680;8.890;2023-06-10T01:08:33;5.20;;;4.00;;
26303;SDS011;57113;48.680;8.890;2023-06-10T01:11:07;6.78;;;3.47;;
26303;SDS011;57113;48.680;8.890;2023-06-10T01:13:38;5.93;;;3.78;;
26303;SDS011;57113;48.680;8.890;2023-06-10T01:16:06;5.43;;;4.15;;
26303;SDS011;57113;48.680;8.890;2023-06-10T01:18:32;4.78;;;4.28;;
26303;SDS011;57113;48.680;8.890;2023-06-10T01:20:58;5.15;;;3.72;;
26303;SDS011;57113;48.680;8.890;2023-06-10T01:23:24;6.47;;;4.22;;
26303;SDS011;57113;48.680;8.890;2023-06-10T01:26:03;12.57;;;4.40;;
26303;SDS011;57113;48.680;8.890;2023-06-10T01:28:50;5.95;;;3.70;;
26303;SDS011;57113;48.680;8.890;2023-06-10T01:34:10;5.65;;;4.10;;
26303;SDS011;57113;48.680;8.890;2023-06-10T01:36:38;5.55;;;4.32;;
26303;SDS011;57113;48.680;8.890;2023-06-10T01:39:06;4.88;;;3.65;;
26303;SDS011;57113;48.680;8.890;2023-06-10T01:41:35;7.65;;;4.30;;
26303;SDS011;57113;48.680;8.890;2023-06-10T01:44:02;6.00;;;4.40;;
26303;SDS011;57113;48.680;8.890;2023-06-10T01:46:28;5.03;;;4.07;;
26303;SDS011;57113;48.680;8.890;2023-06-10T01:48:53;4.60;;;3.88;;
26303;SDS011;57113;48.680;8.890;2023-06-10T01:51:19;6.20;;;3.65;;
26303;SDS011;57113;48.680;8.890;2023-06-10T01:53:45;5.43;;;3.92;;
26303;SDS011;57113;48.680;8.890;2023-06-10T01:56:10;5.53;;;3.80;;
26303;SDS011;57113;48.680;8.890;2023-06-10T01:58:41;7.28;;;4.28;;
26303;SDS011;57113;48.680;8.890;2023-06-10T02:01:07;5.60;;;4.35;;
26303;SDS011;57113;48.680;8.890;2023-06-10T02:03:33;6.80;;;3.88;;
26303;SDS011;57113;48.680;8.890;2023-06-10T02:05:58;4.30;;;3.80;;
26303;SDS011;57113;48.680;8.890;2023-06-10T02:08:24;4.95;;;3.97;;
26303;SDS011;57113;48.680;8.890;2023-06-10T02:10:50;4.88;;;3.75;;
26303;SDS011;57113;48.680;8.890;2023-06-10T02:13:15;4.97;;;3.60;;
26303;SDS011;57113;48.680;8.890;2023-06-10T02:15:41;4.78;;;4.07;;
26303;SDS011;57113;48.680;8.890;2023-06-10T02:18:07;4.97;;;4.00;;
26303;SDS011;57113;48.680;8.890;2023-06-10T02:20:32;5.97;;;4.20;;
26303;SDS011;57113;48.680;8.890;2023-06-10T02:22:58;6.28;;;3.83;;
26303;SDS011;57113;48.680;8.890;2023-06-10T02:25:24;5.68;;;4.20;;
26303;SDS011;57113;48.680;8.890;2023-06-10T02:27:50;5.30;;;4.22;;
26303;SDS011;57113;48.680;8.890;2023-06-10T02:30:15;5.78;;;3.97;;
26303;SDS011;57113;48.680;8.890;2023-06-10T02:32:41;8.23;;;4.05;;
26303;SDS011;57113;48.680;8.890;2023-06-10T02:35:07;4.05;;;3.50;;
26303;SDS011;57113;48.680;8.890;2023-06-10T02:37:33;5.28;;;4.35;;
26303;SDS011;57113;48.680;8.890;2023-06-10T02:39:58;6.53;;;4.00;;
26303;SDS011;57113;48.680;8.890;2023-06-10T02:42:24;4.88;;;3.88;;
26303;SDS011;57113;48.680;8.890;2023-06-10T02:44:50;6.55;;;4.22;;
26303;SDS011;57113;48.680;8.890;2023-06-10T02:47:15;5.13;;;3.97;;
26303;SDS011;57113;48.680;8.890;2023-06-10T02:49:41;5.55;;;4.00;;
26303;SDS011;57113;48.680;8.890;2023-06-10T02:52:07;8.38;;;4.10;;
26303;SDS011;57113;48.680;8.890;2023-06-10T02:54:33;4.97;;;4.07;;
26303;SDS011;57113;48.680;8.890;2023-06-10T02:56:58;4.53;;;4.10;;
26303;SDS011;57113;48.680;8.890;2023-06-10T02:59:24;4.85;;;4.05;;
26303;SDS011;57113;48.680;8.890;2023-06-10T03:01:51;5.07;;;3.75;;
26303;SDS011;57113;48.680;8.890;2023-06-10T03:04:17;5.25;;;3.70;;
26303;SDS011;57113;48.680;8.890;2023-06-10T03:06:43;5.55;;;4.40;;
26303;SDS011;57113;48.680;8.890;2023-06-10T03:09:10;6.35;;;4.05;;
26303;SDS011;57113;48.680;8.890;2023-06-10T03:11:36;5.82;;;4.13;;
26303;SDS011;57113;48.680;8.890;2023-06-10T03:14:01;4.45;;;4.05;;
26303;SDS011;57113;48.680;8.890;2023-06-10T03:16:27;4.82;;;4.18;;
26303;SDS011;57113;48.680;8.890;2023-06-10T03:18:55;5.47;;;4.07;;
26303;SDS011;57113;48.680;8.890;2023-06-10T03:21:20;6.60;;;4.55;;
26303;SDS011;57113;48.680;8.890;2023-06-10T03:23:46;6.95;;;4.47;;
26303;SDS011;57113;48.680;8.890;2023-06-10T03:26:12;4.55;;;3.85;;
26303;SDS011;57113;48.680;8.890;2023-06-10T03:28:40;6.40;;;4.32;;
26303;SDS011;57113;48.680;8.890;2023-06-10T03:31:06;5.00;;;4.03;;
26303;SDS011;57113;48.680;8.890;2023-06-10T03:33:31;5.57;;;4.45;;
26303;SDS011;57113;48.680;8.890;2023-06-10T03:35:57;4.95;;;4.18;;
26303;SDS011;57113;48.680;8.890;2023-06-10T03:38:24;4.72;;;4.00;;
26303;SDS011;57113;48.680;8.890;2023-06-10T03:40:49;9.18;;;4.47;;
26303;SDS011;57113;48.680;8.890;2023-06-10T03:43:15;4.57;;;3.80;;
26303;SDS011;57113;48.680;8.890;2023-06-10T03:45:41;7.53;;;4.32;;
26303;SDS011;57113;48.680;8.890;2023-06-10T03:48:06;5.93;;;4.05;;
26303;SDS011;57113;48.680;8.890;2023-06-10T03:50:33;6.63;;;4.05;;
26303;SDS011;57113;48.680;8.890;2023-06-10T03:52:59;5.13;;;3.60;;
26303;SDS011;57113;48.680;8.890;2023-06-10T03:55:25;5.28;;;3.90;;
26303;SDS011;57113;48.680;8.890;2023-06-10T03:57:51;5.22;;;3.95;;
26303;SDS011;57113;48.680;8.890;2023-06-10T04:00:17;6.38;;;3.92;;
26303;SDS011;57113;48.680;8.890;2023-06-10T04:02:46;9.38;;;4.35;;
26303;SDS011;57113;48.680;8.890;2023-06-10T04:05:14;5.70;;;4.30;;
26303;SDS011;57113;48.680;8.890;2023-06-10T04:07:41;5.93;;;4.20;;
26303;SDS011;57113;48.680;8.890;2023-06-10T04:10:12;6.85;;;4.03;;
26303;SDS011;57113;48.680;8.890;2023-06-10T04:12:38;7.20;;;4.10;;
26303;SDS011;57113;48.680;8.890;2023-06-10T04:15:04;5.25;;;4.25;;
26303;SDS011;57113;48.680;8.890;2023-06-10T04:17:31;5.82;;;4.50;;
26303;SDS011;57113;48.680;8.890;2023-06-10T04:19:57;4.80;;;4.18;;
26303;SDS011;57113;48.680;8.890;2023-06-10T04:22:26;4.85;;;3.80;;
26303;SDS011;57113;48.680;8.890;2023-06-10T04:24:51;4.82;;;4.20;;
26303;SDS011;57113;48.680;8.890;2023-06-10T04:27:17;5.05;;;4.00;;
26303;SDS011;57113;48.680;8.890;2023-06-10T04:29:43;4.47;;;4.07;;
26303;SDS011;57113;48.680;8.890;2023-06-10T04:32:09;7.68;;;4.47;;
26303;SDS011;57113;48.680;8.890;2023-06-10T04:34:34;5.25;;;3.95;;
26303;SDS011;57113;48.680;8.890;2023-06-10T04:37:01;7.40;;;4.20;;
26303;SDS011;57113;48.680;8.890;2023-06-10T04:39:26;8.88;;;3.90;;
26303;SDS011;57113;48.680;8.890;2023-06-10T04:41:52;5.97;;;4.40;;
26303;SDS011;57113;48.680;8.890;2023-06-10T04:44:18;8.23;;;4.38;;
26303;SDS011;57113;48.680;8.890;2023-06-10T04:46:43;6.93;;;4.53;;
26303;SDS011;57113;48.680;8.890;2023-06-10T04:49:10;6.38;;;3.97;;
26303;SDS011;57113;48.680;8.890;2023-06-10T04:51:36;4.95;;;4.13;;
26303;SDS011;57113;48.680;8.890;2023-06-10T04:54:02;5.32;;;4.35;;
26303;SDS011;57113;48.680;8.890;2023-06-10T04:56:29;5.03;;;4.03;;
26303;SDS011;57113;48.680;8.890;2023-06-10T04:58:57;7.25;;;4.43;;
26303;SDS011;57113;48.680;8.890;2023-06-10T05:01:23;10.63;;;4.32;;
26303;SDS011;57113;48.680;8.890;2023-06-10T05:03:49;4.95;;;3.88;;
26303;SDS011;57113;48.680;8.890;2023-06-10T05:06:15;5.32;;;3.80;;
26303;SDS011;57113;48.680;8.890;2023-06-10T05:08:41;7.90;;;3.97;;
26303;SDS011;57113;48.680;8.890;2023-06-10T05:11:07;8.02;;;4.55;;
26303;SDS011;57113;48.680;8.890;2023-06-10T05:13:32;4.68;;;4.00;;
26303;SDS011;57113;48.680;8.890;2023-06-10T05:15:58;9.20;;;4.05;;
26303;SDS011;57113;48.680;8.890;2023-06-10T05:18:24;6.20;;;4.20;;
26303;SDS011;57113;48.680;8.890;2023-06-10T05:20:49;4.55;;;3.92;;
26303;SDS011;57113;48.680;8.890;2023-06-10T05:23:16;7.80;;;4.40;;
26303;SDS011;57113;48.680;8.890;2023-06-10T05:25:41;5.22;;;4.00;;
26303;SDS011;57113;48.680;8.890;2023-06-10T05:28:07;6.22;;;4.25;;
26303;SDS011;57113;48.680;8.890;2023-06-10T05:30:35;8.73;;;4.13;;
26303;SDS011;57113;48.680;8.890;2023-06-10T05:33:01;5.00;;;4.03;;
26303;SDS011;57113;48.680;8.890;2023-06-10T05:35:27;6.38;;;4.60;;
26303;SDS011;57113;48.680;8.890;2023-06-10T05:37:53;4.78;;;4.28;;
26303;SDS011;57113;48.680;8.890;2023-06-10T05:40:18;5.40;;;4.00;;
26303;SDS011;57113;48.680;8.890;2023-06-10T05:42:44;7.90;;;4.68;;
26303;SDS011;57113;48.680;8.890;2023-06-10T05:45:10;6.32;;;4.25;;
26303;SDS011;57113;48.680;8.890;2023-06-10T05:47:35;5.07;;;4.10;;
26303;SDS011;57113;48.680;8.890;2023-06-10T05:50:01;5.50;;;4.18;;
26303;SDS011;57113;48.680;8.890;2023-06-10T05:52:27;5.82;;;4.30;;
26303;SDS011;57113;48.680;8.890;2023-06-10T05:54:56;7.63;;;4.40;;
26303;SDS011;57113;48.680;8.890;2023-06-10T05:57:21;11.80;;;4.50;;
26303;SDS011;57113;48.680;8.890;2023-06-10T05:59:47;6.43;;;4.10;;
26303;SDS011;57113;48.680;8.890;2023-06-10T06:02:13;5.50;;;4.00;;
26303;SDS011;57113;48.680;8.890;2023-06-10T06:04:38;7.82;;;4.15;;
26303;SDS011;57113;48.680;8.890;2023-06-10T06:07:04;6.07;;;4.45;;
26303;SDS011;57113;48.680;8.890;2023-06-10T06:09:30;4.70;;;4.07;;
26303;SDS011;57113;48.680;8.890;2023-06-10T06:11:56;5.70;;;4.25;;
26303;SDS011;57113;48.680;8.890;2023-06-10T06:14:22;5.45;;;4.32;;
26303;SDS011;57113;48.680;8.890;2023-06-10T06:16:47;6.45;;;4.45;;
26303;SDS011;57113;48.680;8.890;2023-06-10T06:19:13;4.28;;;3.88;;
26303;SDS011;57113;48.680;8.890;2023-06-10T06:21:39;4.47;;;4.07;;
26303;SDS011;57113;48.680;8.890;2023-06-10T06:24:04;4.85;;;3.97;;
26303;SDS011;57113;48.680;8.890;2023-06-10T06:26:30;4.88;;;3.80;;
26303;SDS011;57113;48.680;8.890;2023-06-10T06:28:56;5.20;;;4.22;;
26303;SDS011;57113;48.680;8.890;2023-06-10T06:31:22;5.88;;;4.03;;
26303;SDS011;57113;48.680;8.890;2023-06-10T06:33:47;4.80;;;3.95;;
26303;SDS011;57113;48.680;8.890;2023-06-10T06:36:13;4.70;;;4.15;;
26303;SDS011;57113;48.680;8.890;2023-06-10T06:38:38;5.15;;;4.13;;
26303;SDS011;57113;48.680;8.890;2023-06-10T06:41:04;5.97;;;4.10;;
26303;SDS011;57113;48.680;8.890;2023-06-10T06:43:31;4.68;;;3.90;;
26303;SDS011;57113;48.680;8.890;2023-06-10T06:45:57;7.80;;;4.10;;
26303;SDS011;57113;48.680;8.890;2023-06-10T06:48:23;4.03;;;3.70;;
26303;SDS011;57113;48.680;8.890;2023-06-10T06:50:49;4.22;;;3.72;;
26303;SDS011;57113;48.680;8.890;2023-06-10T06:53:15;5.85;;;3.88;;
26303;SDS011;57113;48.680;8.890;2023-06-10T06:55:41;4.68;;;3.97;;
26303;SDS011;57113;48.680;8.890;2023-06-10T06:58:06;4.30;;;3.72;;
26303;SDS011;57113;48.680;8.890;2023-06-10T07:00:32;5.50;;;3.92;;
26303;SDS011;57113;48.680;8.890;2023-06-10T07:02:58;4.63;;;3.83;;
26303;SDS011;57113;48.680;8.890;2023-06-10T07:05:24;4.15;;;3.70;;
26303;SDS011;57113;48.680;8.890;2023-06-10T07:07:53;4.07;;;3.50;;
26303;SDS011;57113;48.680;8.890;2023-06-10T07:10:21;5.40;;;3.80;;
26303;SDS011;57113;48.680;8.890;2023-06-10T07:12:48;4.82;;;4.03;;
26303;SDS011;57113;48.680;8.890;2023-06-10T07:15:14;4.65;;;3.80;;
26303;SDS011;57113;48.680;8.890;2023-06-10T07:17:39;4.53;;;3.88;;
26303;SDS011;57113;48.680;8.890;2023-06-10T07:20:05;4.25;;;3.75;;
26303;SDS011;57113;48.680;8.890;2023-06-10T07:22:31;3.88;;;3.47;;
26303;SDS011;57113;48.680;8.890;2023-06-10T07:24:57;4.60;;;3.85;;
26303;SDS011;57113;48.680;8.890;2023-06-10T07:27:23;5.43;;;4.10;;
26303;SDS011;57113;48.680;8.890;2023-06-10T07:29:48;4.15;;;3.67;;
26303;SDS011;57113;48.680;8.890;2023-06-10T07:32:14;4.32;;;3.90;;
26303;SDS011;57113;48.680;8.890;2023-06-10T07:34:40;4.57;;;3.90;;
26303;SDS011;57113;48.680;8.890;2023-06-10T07:37:05;4.28;;;3.88;;
26303;SDS011;57113;48.680;8.890;2023-06-10T07:39:31;4.90;;;3.90;;
26303;SDS011;57113;48.680;8.890;2023-06-10T07:41:57;4.05;;;3.60;;
26303;SDS011;57113;48.680;8.890;2023-06-10T07:44:23;4.53;;;4.10;;
26303;SDS011;57113;48.680;8.890;2023-06-10T07:46:49;4.88;;;4.25;;
26303;SDS011;57113;48.680;8.890;2023-06-10T07:49:14;4.72;;;3.97;;
26303;SDS011;57113;48.680;8.890;2023-06-10T07:51:40;4.00;;;3.60;;
26303;SDS011;57113;48.680;8.890;2023-06-10T07:54:06;5.30;;;3.90;;
26303;SDS011;57113;48.680;8.890;2023-06-10T07:56:31;3.83;;;3.53;;
26303;SDS011;57113;48.680;8.890;2023-06-10T07:58:57;4.47;;;3.90;;
26303;SDS011;57113;48.680;8.890;2023-06-10T08:01:23;6.45;;;3.90;;
26303;SDS011;57113;48.680;8.890;2023-06-10T08:03:49;4.70;;;3.83;;
26303;SDS011;57113;48.680;8.890;2023-06-10T08:06:15;3.95;;;3.55;;
26303;SDS011;57113;48.680;8.890;2023-06-10T08:08:42;4.97;;;3.83;;
26303;SDS011;57113;48.680;8.890;2023-06-10T08:11:09;4.97;;;4.00;;
26303;SDS011;57113;48.680;8.890;2023-06-10T08:13:36;4.30;;;3.75;;
26303;SDS011;57113;48.680;8.890;2023-06-10T08:16:02;4.35;;;3.85;;
26303;SDS011;57113;48.680;8.890;2023-06-10T08:18:28;4.07;;;3.33;;
26303;SDS011;57113;48.680;8.890;2023-06-10T08:20:53;4.85;;;3.70;;
26303;SDS011;57113;48.680;8.890;2023-06-10T08:23:20;4.85;;;4.03;;
26303;SDS011;57113;48.680;8.890;2023-06-10T08:25:45;4.60;;;4.13;;
26303;SDS011;57113;48.680;8.890;2023-06-10T08:28:11;4.60;;;4.20;;
26303;SDS011;57113;48.680;8.890;2023-06-10T08:30:37;5.72;;;3.65;;
26303;SDS011;57113;48.680;8.890;2023-06-10T08:33:02;4.82;;;3.83;;
26303;SDS011;57113;48.680;8.890;2023-06-10T08:35:28;3.97;;;3.63;;
26303;SDS011;57113;48.680;8.890;2023-06-10T08:37:54;4.55;;;3.88;;
26303;SDS011;57113;48.680;8.890;2023-06-10T08:40:19;5.03;;;3.80;;
26303;SDS011;57113;48.680;8.890;2023-06-10T08:42:48;4.50;;;3.70;;
26303;SDS011;57113;48.680;8.890;2023-06-10T08:45:18;4.55;;;3.85;;
26303;SDS011;57113;48.680;8.890;2023-06-10T08:47:49;3.92;;;3.53;;
26303;SDS011;57113;48.680;8.890;2023-06-10T08:50:18;4.90;;;3.63;;
26303;SDS011;57113;48.680;8.890;2023-06-10T08:52:44;4.68;;;3.67;;
26303;SDS011;57113;48.680;8.890;2023-06-10T08:58:09;3.92;;;3.58;;
26303;SDS011;57113;48.680;8.890;2023-06-10T09:00:35;4.88;;;3.90;;
26303;SDS011;57113;48.680;8.890;2023-06-10T09:03:04;4.53;;;3.80;;
26303;SDS011;57113;48.680;8.890;2023-06-10T09:05:33;4.15;;;3.58;;
26303;SDS011;57113;48.680;8.890;2023-06-10T09:07:59;4.53;;;4.07;;
26303;SDS011;57113;48.680;8.890;2023-06-10T09:10:26;5.05;;;4.00;;
26303;SDS011;57113;48.680;8.890;2023-06-10T09:12:52;3.90;;;3.50;;
26303;SDS011;57113;48.680;8.890;2023-06-10T09:15:18;4.68;;;3.97;;
26303;SDS011;57113;48.680;8.890;2023-06-10T09:17:44;5.95;;;3.90;;
26303;SDS011;57113;48.680;8.890;2023-06-10T09:20:10;4.15;;;3.35;;
26303;SDS011;57113;48.680;8.890;2023-06-10T09:22:36;4.95;;;3.80;;
26303;SDS011;57113;48.680;8.890;2023-06-10T09:25:03;6.00;;;3.88;;
26303;SDS011;57113;48.680;8.890;2023-06-10T09:27:30;4.15;;;3.30;;
26303;SDS011;57113;48.680;8.890;2023-06-10T09:29:57;4.22;;;3.40;;
26303;SDS011;57113;48.680;8.890;2023-06-10T09:32:24;4.80;;;3.88;;
26303;SDS011;57113;48.680;8.890;2023-06-10T09:34:50;5.05;;;3.88;;
26303;SDS011;57113;48.680;8.890;2023-06-10T09:37:22;5.63;;;3.83;;
26303;SDS011;57113;48.680;8.890;2023-06-10T09:40:04;4.55;;;3.80;;
26303;SDS011;57113;48.680;8.890;2023-06-10T09:42:33;4.80;;;3.78;;
26303;SDS011;57113;48.680;8.890;2023-06-10T09:45:00;4.32;;;3.63;;
26303;SDS011;57113;48.680;8.890;2023-06-10T09:47:27;6.65;;;3.42;;
26303;SDS011;57113;48.680;8.890;2023-06-10T09:49:53;5.03;;;3.35;;
26303;SDS011;57113;48.680;8.890;2023-06-10T09:52:26;4.28;;;3.60;;
26303;SDS011;57113;48.680;8.890;2023-06-10T09:57:20;5.03;;;3.70;;
26303;SDS011;57113;48.680;8.890;2023-06-10T09:59:46;4.07;;;3.03;;
26303;SDS011;57113;48.680;8.890;2023-06-10T10:02:15;3.75;;;3.30;;
26303;SDS011;57113;48.680;8.890;2023-06-10T10:04:43;4.05;;;3.50;;
26303;SDS011;57113;48.680;8.890;2023-06-10T10:07:09;4.85;;;3.30;;
26303;SDS011;57113;48.680;8.890;2023-06-10T10:09:39;3.92;;;3.50;;
26303;SDS011;57113;48.680;8.890;2023-06-10T10:12:10;3.80;;;3.33;;
26303;SDS011;57113;48.680;8.890;2023-06-10T10:14:37;5.50;;;3.50;;
26303;SDS011;57113;48.680;8.890;2023-06-10T10:17:07;4.53;;;3.38;;
26303;SDS011;57113;48.680;8.890;2023-06-10T10:19:48;3.92;;;3.45;;
26303;SDS011;57113;48.680;8.890;2023-06-10T10:22:19;5.03;;;3.88;;
26303;SDS011;57113;48.680;8.890;2023-06-10T10:24:50;3.50;;;3.20;;
26303;SDS011;57113;48.680;8.890;2023-06-10T10:27:28;4.03;;;3.42;;
26303;SDS011;57113;48.680;8.890;2023-06-10T10:30:03;4.95;;;3.28;;
26303;SDS011;57113;48.680;8.890;2023-06-10T10:32:35;3.80;;;3.00;;
26303;SDS011;57113;48.680;8.890;2023-06-10T10:37:41;5.35;;;3.30;;
26303;SDS011;57113;48.680;8.890;2023-06-10T10:40:07;4.25;;;3.50;;
26303;SDS011;57113;48.680;8.890;2023-06-10T10:42:33;4.53;;;3.58;;
26303;SDS011;57113;48.680;8.890;2023-06-10T10:45:00;4.97;;;3.30;;
26303;SDS011;57113;48.680;8.890;2023-06-10T10:47:27;4.15;;;3.33;;
26303;SDS011;57113;48.680;8.890;2023-06-10T10:49:55;5.00;;;3.50;;
26303;SDS011;57113;48.680;8.890;2023-06-10T10:52:27;4.63;;;3.67;;
26303;SDS011;57113;48.680;8.890;2023-06-10T10:55:14;4.00;;;3.13;;
26303;SDS011;57113;48.680;8.890;2023-06-10T10:57:40;3.85;;;3.45;;
26303;SDS011;57113;48.680;8.890;2023-06-10T11:00:06;3.50;;;3.20;;
26303;SDS011;57113;48.680;8.890;2023-06-10T11:02:33;4.20;;;3.35;;
26303;SDS011;57113;48.680;8.890;2023-06-10T11:04:59;3.80;;;3.42;;
26303;SDS011;57113;48.680;8.890;2023-06-10T11:07:26;3.50;;;3.20;;
26303;SDS011;57113;48.680;8.890;2023-06-10T11:10:10;3.88;;;3.47;;
26303;SDS011;57113;48.680;8.890;2023-06-10T11:15:22;3.70;;;3.20;;
26303;SDS011;57113;48.680;8.890;2023-06-10T11:31:23;3.85;;;3.30;;
26303;SDS011;57113;48.680;8.890;2023-06-10T11:34:01;4.25;;;3.58;;
26303;SDS011;57113;48.680;8.890;2023-06-10T11:38:56;4.53;;;3.17;;
26303;SDS011;57113;48.680;8.890;2023-06-10T11:41:24;4.40;;;3.10;;
26303;SDS011;57113;48.680;8.890;2023-06-10T11:43:54;5.25;;;3.25;;
26303;SDS011;57113;48.680;8.890;2023-06-10T11:46:23;3.55;;;3.00;;
26303;SDS011;57113;48.680;8.890;2023-06-10T11:48:53;3.72;;;3.17;;
26303;SDS011;57113;48.680;8.890;2023-06-10T11:51:20;4.65;;;3.58;;
26303;SDS011;57113;48.680;8.890;2023-06-10T11:53:46;3.65;;;3.00;;
26303;SDS011;57113;48.680;8.890;2023-06-10T11:56:13;9.68;;;3.30;;
26303;SDS011;57113;48.680;8.890;2023-06-10T11:58:40;5.10;;;3.63;;
26303;SDS011;57113;48.680;8.890;2023-06-10T12:01:10;4.55;;;3.65;;
26303;SDS011;57113;48.680;8.890;2023-06-10T12:03:36;4.38;;;3.53;;
26303;SDS011;57113;48.680;8.890;2023-06-10T12:06:06;3.75;;;3.30;;
26303;SDS011;57113;48.680;8.890;2023-06-10T12:08:32;4.90;;;3.65;;
26303;SDS011;57113;48.680;8.890;2023-06-10T12:10:58;4.05;;;3.17;;
26303;SDS011;57113;48.680;8.890;2023-06-10T12:13:27;3.60;;;3.20;;
26303;SDS011;57113;48.680;8.890;2023-06-10T12:15:53;5.03;;;3.70;;
26303;SDS011;57113;48.680;8.890;2023-06-10T12:18:20;4.53;;;3.28;;
26303;SDS011;57113;48.680;8.890;2023-06-10T12:20:47;3.50;;;3.10;;
26303;SDS011;57113;48.680;8.890;2023-06-10T12:23:13;4.22;;;3.53;;
26303;SDS011;57113;48.680;8.890;2023-06-10T12:25:49;4.90;;;3.25;;
26303;SDS011;57113;48.680;8.890;2023-06-10T12:28:16;3.95;;;3.20;;
26303;SDS011;57113;48.680;8.890;2023-06-10T12:30:45;3.85;;;3.38;;
26303;SDS011;57113;48.680;8.890;2023-06-10T12:33:17;3.85;;;3.28;;
26303;SDS011;57113;48.680;8.890;2023-06-10T12:35:50;4.32;;;3.55;;
26303;SDS011;57113;48.680;8.890;2023-06-10T12:38:23;4.15;;;3.55;;
26303;SDS011;57113;48.680;8.890;2023-06-10T12:40:53;4.15;;;3.20;;
26303;SDS011;57113;48.680;8.890;2023-06-10T12:43:25;3.90;;;3.42;;
26303;SDS011;57113;48.680;8.890;2023-06-10T12:45:50;6.03;;;3.75;;
26303;SDS011;57113;48.680;8.890;2023-06-10T12:48:23;4.40;;;3.22;;
26303;SDS011;57113;48.680;8.890;2023-06-10T12:50:56;3.97;;;3.55;;
26303;SDS011;57113;48.680;8.890;2023-06-10T12:53:23;3.78;;;3.38;;
26303;SDS011;57113;48.680;8.890;2023-06-10T12:55:51;3.17;;;2.88;;
26303;SDS011;57113;48.680;8.890;2023-06-10T12:58:17;4.45;;;3.25;;
26303;SDS011;57113;48.680;8.890;2023-06-10T13:00:47;2.92;;;2.70;;
26303;SDS011;57113;48.680;8.890;2023-06-10T13:03:13;4.32;;;3.20;;
26303;SDS011;57113;48.680;8.890;2023-06-10T13:05:39;3.92;;;2.92;;
26303;SDS011;57113;48.680;8.890;2023-06-10T13:08:06;4.13;;;3.50;;
26303;SDS011;57113;48.680;8.890;2023-06-10T13:10:32;4.47;;;3.30;;
26303;SDS011;57113;48.680;8.890;2023-06-10T13:12:59;3.88;;;3.20;;
26303;SDS011;57113;48.680;8.890;2023-06-10T13:15:26;4.40;;;3.10;;
26303;SDS011;57113;48.680;8.890;2023-06-10T13:17:52;5.53;;;3.50;;
26303;SDS011;57113;48.680;8.890;2023-06-10T13:20:18;3.83;;;3.17;;
26303;SDS011;57113;48.680;8.890;2023-06-10T13:22:45;4.07;;;3.28;;
26303;SDS011;57113;48.680;8.890;2023-06-10T13:25:12;3.75;;;3.38;;
26303;SDS011;57113;48.680;8.890;2023-06-10T13:27:38;3.50;;;3.20;;
26303;SDS011;57113;48.680;8.890;2023-06-10T13:30:07;3.65;;;3.33;;
26303;SDS011;57113;48.680;8.890;2023-06-10T13:32:34;4.43;;;3.17;;
26303;SDS011;57113;48.680;8.890;2023-06-10T13:35:00;4.25;;;3.30;;
26303;SDS011;57113;48.680;8.890;2023-06-10T13:37:26;3.63;;;3.00;;
26303;SDS011;57113;48.680;8.890;2023-06-10T13:39:52;4.82;;;3.42;;
26303;SDS011;57113;48.680;8.890;2023-06-10T13:42:18;4.00;;;3.42;;
26303;SDS011;57113;48.680;8.890;2023-06-10T13:44:44;3.72;;;3.33;;
26303;SDS011;57113;48.680;8.890;2023-06-10T13:47:12;3.72;;;3.17;;
26303;SDS011;57113;48.680;8.890;2023-06-10T13:49:38;3.42;;;3.13;;
26303;SDS011;57113;48.680;8.890;2023-06-10T13:52:05;3.40;;;3.00;;
26303;SDS011;57113;48.680;8.890;2023-06-10T13:54:31;3.88;;;3.20;;
26303;SDS011;57113;48.680;8.890;2023-06-10T13:56:57;4.10;;;3.40;;
26303;SDS011;57113;48.680;8.890;2023-06-10T13:59:24;4.25;;;3.35;;
26303;SDS011;57113;48.680;8.890;2023-06-10T14:01:49;4.20;;;3.47;;
26303;SDS011;57113;48.680;8.890;2023-06-10T14:04:15;4.28;;;2.55;;
26303;SDS011;57113;48.680;8.890;2023-06-10T14:06:41;3.78;;;3.25;;
26303;SDS011;57113;48.680;8.890;2023-06-10T14:09:07;3.65;;;3.28;;
26303;SDS011;57113;48.680;8.890;2023-06-10T14:11:32;6.10;;;3.25;;
26303;SDS011;57113;48.680;8.890;2023-06-10T14:13:58;3.83;;;2.83;;
26303;SDS011;57113;48.680;8.890;2023-06-10T14:16:25;5.25;;;3.38;;
26303;SDS011;57113;48.680;8.890;2023-06-10T14:18:51;4.18;;;3.78;;
26303;SDS011;57113;48.680;8.890;2023-06-10T14:21:17;3.63;;;3.30;;
26303;SDS011;57113;48.680;8.890;2023-06-10T14:23:43;3.47;;;3.17;;
26303;SDS011;57113;48.680;8.890;2023-06-10T14:26:09;4.15;;;3.40;;
26303;SDS011;57113;48.680;8.890;2023-06-10T14:28:35;3.50;;;3.20;;
26303;SDS011;57113;48.680;8.890;2023-06-10T14:31:00;4.80;;;3.15;;
26303;SDS011;57113;48.680;8.890;2023-06-10T14:33:26;3.33;;;3.03;;
26303;SDS011;57113;48.680;8.890;2023-06-10T14:35:52;3.83;;;3.05;;
26303;SDS011;57113;48.680;8.890;2023-06-10T14:38:17;3.50;;;3.20;;
26303;SDS011;57113;48.680;8.890;2023-06-10T14:40:43;3.47;;;2.90;;
26303;SDS011;57113;48.680;8.890;2023-06-10T14:43:09;3.35;;;3.05;;
26303;SDS011;57113;48.680;8.890;2023-06-10T14:45:39;3.47;;;3.10;;
26303;SDS011;57113;48.680;8.890;2023-06-10T14:48:05;3.42;;;2.75;;
26303;SDS011;57113;48.680;8.890;2023-06-10T14:50:32;4.35;;;3.10;;
26303;SDS011;57113;48.680;8.890;2023-06-10T14:53:01;5.28;;;3.58;;
26303;SDS011;57113;48.680;8.890;2023-06-10T14:55:27;4.15;;;3.08;;
26303;SDS011;57113;48.680;8.890;2023-06-10T14:57:53;3.42;;;3.03;;
26303;SDS011;57113;48.680;8.890;2023-06-10T15:00:19;3.40;;;3.10;;
26303;SDS011;57113;48.680;8.890;2023-06-10T15:02:47;3.45;;;3.10;;
26303;SDS011;57113;48.680;8.890;2023-06-10T15:05:13;3.70;;;3.13;;
26303;SDS011;57113;48.680;8.890;2023-06-10T15:07:40;4.25;;;3.17;;
26303;SDS011;57113;48.680;8.890;2023-06-10T15:10:09;3.30;;;3.00;;
26303;SDS011;57113;48.680;8.890;2023-06-10T15:12:35;3.15;;;2.85;;
26303;SDS011;57113;48.680;8.890;2023-06-10T15:15:01;3.13;;;2.83;;
26303;SDS011;57113;48.680;8.890;2023-06-10T15:17:27;3.70;;;3.20;;